Stations météo

réclame
Mon MeteoGroup
Desenzano, Italie (16089): Température de l'air & dewpoint: 06.12.2017 12:00:00 - 12.12.2017 12:00:00 (CET)Desenzano, Italie (16089): Vitesse du vent: 06.12.2017 12:00:00 - 12.12.2017 12:00:00 (CET)Desenzano, Italie (16089): Direction du vent: 06.12.2017 12:00:00 - 12.12.2017 12:00:00 (CET)Desenzano, Italie (16089): reduced air pressure: 06.12.2017 12:00:00 - 12.12.2017 12:00:00 (CET)Desenzano, Italie (16089): Quantités de précipitations: 06.12.2017 12:00:00 - 12.12.2017 12:00:00 (CET)
Date & Time tt [°C] td [°C] ff [km/h] ff [knt] dd ppp [hPa] rr [mm]
12.12.2017 12:00:00 5,0 5,0 0 0 N 1009,4 -
12.12.2017 11:00:00 3,3 3,3 4 2 S 1009,3 -
12.12.2017 10:00:00 2,3 2,2 2 1 S 1008,4 -
12.12.2017 09:00:00 1,6 1,3 5 3 SSW 1007,6 -
12.12.2017 08:00:00 1,7 1,1 11 6 S 1005,9 -
12.12.2017 07:00:00 3,7 3,4 9 5 SSE 1004,5 0,0
12.12.2017 06:00:00 5,0 5,0 8 4 SW 1002,9 -
12.12.2017 05:00:00 4,6 4,2 4 2 SSE 1001,9 -
12.12.2017 04:00:00 5,7 5,4 4 2 S 1000,9 -
12.12.2017 03:00:00 7,7 7,7 0 0 N 999,8 -
12.12.2017 02:00:00 8,8 8,8 4 2 S 998,6 -
12.12.2017 01:00:00 9,4 9,4 0 0 N 998,0 0,0
12.12.2017 00:00:00 9,6 9,6 0 0 N 997,1 -
11.12.2017 23:00:00 9,9 9,9 0 0 N 996,5 -
11.12.2017 22:00:00 9,5 9,5 4 2 NW 996,4 -
11.12.2017 21:00:00 9,4 9,4 0 0 N 996,3 -
11.12.2017 20:00:00 9,7 9,7 11 6 NNW 996,0 -
11.12.2017 19:00:00 9,1 9,1 21 11 NNW 996,2 0,0
11.12.2017 18:00:00 8,3 8,3 18 10 N 996,8 -
11.12.2017 17:00:00 7,9 7,9 16 9 NNW 997,5 -
11.12.2017 16:00:00 7,4 7,4 24 13 N 997,2 -
11.12.2017 15:00:00 6,2 6,2 21 11 N 997,5 -
11.12.2017 14:00:00 4,6 4,6 15 8 N 998,3 -
11.12.2017 13:00:00 2,4 2,3 5 3 SW 999,2 0,0
11.12.2017 12:00:00 1,4 1,1 2 1 SSE 999,9 -
11.12.2017 11:00:00 1,1 0,8 5 3 S 1000,5 -
11.12.2017 10:00:00 1,2 0,8 0 0 N 1000,3 -
11.12.2017 09:00:00 1,2 0,8 4 2 SSE 1001,5 -
11.12.2017 08:00:00 0,6 0,0 0 0 N 1001,4 -
11.12.2017 07:00:00 0,6 0,0 0 0 N 1001,8 0,0
11.12.2017 06:00:00 0,5 -0,1 4 2 SSE 1001,9 -
11.12.2017 05:00:00 0,5 -0,2 4 2 SE 1002,3 -
11.12.2017 04:00:00 0,3 -0,6 0 0 N 1002,8 -
11.12.2017 03:00:00 0,3 -0,6 0 0 N 1004,1 -
11.12.2017 02:00:00 0,4 -0,5 0 0 N 1004,1 -
11.12.2017 01:00:00 0,7 -0,3 8 4 NNW 1004,4 0,0
11.12.2017 00:00:00 0,3 -0,9 2 1 SW 1005,4 -
10.12.2017 23:00:00 0,3 -0,9 2 1 SSW 1005,8 -
10.12.2017 22:00:00 0,2 -1,1 2 1 SSW 1006,1 -
10.12.2017 21:00:00 0,2 -1,3 2 1 S 1006,2 -
10.12.2017 20:00:00 0,4 -1,4 4 2 S 1006,9 -
10.12.2017 19:00:00 2,5 1,5 9 5 NNW 1007,1 0,0
10.12.2017 18:00:00 2,0 0,2 8 4 N 1007,0 -
10.12.2017 17:00:00 2,3 -0,2 8 4 N 1007,8 -
10.12.2017 16:00:00 1,9 -1,6 4 2 E 1008,7 -
10.12.2017 15:00:00 3,6 -1,6 2 1 ENE 1009,4 -
10.12.2017 14:00:00 4,9 -3,2 5 3 W 1009,8 -
10.12.2017 13:00:00 4,3 -3,8 5 3 N 1011,1 0,0
10.12.2017 12:00:00 1,6 -5,6 0 0 N 1011,8 -
10.12.2017 11:00:00 0,8 -8,3 0 0 N 1013,3 -
10.12.2017 10:00:00 1,0 -9,5 2 1 ESE 1014,1 -
10.12.2017 09:00:00 4,2 -3,7 5 3 NNW 1014,4 -
10.12.2017 08:00:00 3,9 -3,7 11 6 NW 1014,1 -
10.12.2017 07:00:00 3,3 -4,0 13 7 NW 1014,2 0,0
10.12.2017 06:00:00 -0,3 -8,6 2 1 W 1014,9 -
10.12.2017 05:00:00 -1,0 -11,0 2 1 W 1015,5 -
10.12.2017 04:00:00 -0,7 -11,6 0 0 N 1015,7 -
10.12.2017 03:00:00 0,5 -11,7 2 1 SSW 1016,1 -
10.12.2017 02:00:00 3,9 -8,6 5 3 W 1016,1 -
10.12.2017 01:00:00 5,1 -6,3 15 8 NW 1016,3 0,0
10.12.2017 00:00:00 5,4 -4,6 18 10 WNW 1016,5 -
09.12.2017 23:00:00 6,8 -3,0 29 16 N 1016,3 -
09.12.2017 22:00:00 6,7 -2,6 26 14 N 1016,4 -
09.12.2017 21:00:00 4,8 1,2 16 9 NW 1016,3 -
09.12.2017 20:00:00 1,4 -0,7 8 4 NW 1015,7 -
09.12.2017 19:00:00 1,6 -2,2 4 2 SW 1015,4 0,0
09.12.2017 18:00:00 3,3 -1,1 2 1 SSE 1014,6 -
09.12.2017 17:00:00 5,2 -0,3 2 1 ESE 1014,2 -
09.12.2017 16:00:00 6,7 0,1 0 0 N 1013,6 -
09.12.2017 15:00:00 7,3 1,3 5 3 S 1013,1 -
09.12.2017 14:00:00 8,6 2,1 8 4 S 1013,1 -
09.12.2017 13:00:00 8,6 2,7 5 3 S 1013,1 0,0
09.12.2017 12:00:00 6,3 2,9 4 2 SSE 1013,1 -
09.12.2017 11:00:00 4,9 3,2 0 0 N 1013,2 -
09.12.2017 10:00:00 3,1 1,9 0 0 N 1012,7 -
09.12.2017 09:00:00 1,9 -0,4 0 0 N 1011,5 -
09.12.2017 08:00:00 2,4 -0,4 0 0 N 1010,2 -
09.12.2017 07:00:00 1,5 -2,3 11 6 E 1008,9 0,0
09.12.2017 06:00:00 1,7 -1,8 0 0 N 1007,7 -
09.12.2017 05:00:00 2,3 0,2 4 2 SSW 1007,3 -
09.12.2017 04:00:00 4,2 2,8 0 0 N 1007,1 -
09.12.2017 03:00:00 3,9 2,4 8 4 SSW 1006,7 -
09.12.2017 02:00:00 4,1 2,3 8 4 SSW 1006,8 -
09.12.2017 01:00:00 4,9 2,9 5 3 SSW 1006,8 0,0
09.12.2017 00:00:00 5,6 3,6 5 3 SW 1007,1 -
08.12.2017 23:00:00 4,5 3,1 5 3 SW 1007,5 -
08.12.2017 22:00:00 4,5 3,1 8 4 SSW 1007,8 -
08.12.2017 21:00:00 5,0 2,8 0 0 N 1008,2 -
08.12.2017 20:00:00 5,8 3,4 5 3 S 1008,9 -
08.12.2017 19:00:00 6,5 3,6 2 1 SSW 1008,8 0,0
08.12.2017 18:00:00 6,7 4,0 2 1 S 1009,4 -
08.12.2017 17:00:00 7,0 3,9 0 0 N 1009,8 -
08.12.2017 16:00:00 7,2 3,9 0 0 N 1010,9 -
08.12.2017 15:00:00 7,4 4,1 2 1 SW 1011,8 -
08.12.2017 14:00:00 7,6 5,0 2 1 SSW 1012,8 -
08.12.2017 13:00:00 7,0 4,8 4 2 WSW 1014,2 0,0
08.12.2017 12:00:00 6,1 3,9 2 1 SW 1015,3 -
08.12.2017 11:00:00 5,9 3,9 2 1 SSW 1016,9 -
08.12.2017 10:00:00 5,7 4,0 4 2 S 1017,4 -
08.12.2017 09:00:00 5,3 3,6 4 2 S 1017,9 -
08.12.2017 08:00:00 5,4 3,9 2 1 S 1018,7 -
08.12.2017 07:00:00 5,3 3,8 2 1 S 1019,3 0,0
08.12.2017 06:00:00 5,2 3,8 2 1 S 1020,2 -
08.12.2017 05:00:00 4,9 3,4 4 2 S 1020,9 -
08.12.2017 04:00:00 4,9 3,4 0 0 N 1022,0 -
08.12.2017 03:00:00 4,5 2,7 2 1 S 1022,9 -
08.12.2017 02:00:00 4,9 3,2 2 1 S 1023,9 -
08.12.2017 01:00:00 4,9 2,9 0 0 N 1024,4 0,0
08.12.2017 00:00:00 5,1 2,8 0 0 N 1025,5 -
07.12.2017 23:00:00 5,2 2,9 0 0 N 1026,1 -
07.12.2017 22:00:00 5,4 3,4 0 0 N 1026,5 -
07.12.2017 21:00:00 5,4 3,4 0 0 N 1026,7 -
07.12.2017 20:00:00 5,4 3,0 0 0 N 1027,0 -
07.12.2017 19:00:00 5,5 3,1 4 2 SSE 1027,3 0,0
07.12.2017 18:00:00 5,3 2,4 2 1 SSE 1027,6 -
07.12.2017 17:00:00 6,1 1,9 0 0 N 1027,5 -
07.12.2017 16:00:00 7,6 2,6 4 2 SSE 1027,6 -
07.12.2017 15:00:00 8,9 2,8 4 2 S 1027,7 -
07.12.2017 14:00:00 9,8 3,2 5 3 NW 1028,4 -
07.12.2017 13:00:00 9,4 3,3 2 1 SE 1029,2 0,0
07.12.2017 12:00:00 7,1 2,7 2 1 SSE 1030,1 -
07.12.2017 11:00:00 5,1 2,1 2 1 SE 1031,0 -
07.12.2017 10:00:00 2,7 1,8 0 0 N 1031,0 -
07.12.2017 09:00:00 0,6 -0,4 0 0 N 1031,2 -
07.12.2017 08:00:00 0,2 -0,8 0 0 N 1031,1 -
07.12.2017 07:00:00 0,0 -1,0 4 2 S 1031,2 0,0
07.12.2017 06:00:00 0,0 -1,0 4 2 S 1031,0 -
07.12.2017 05:00:00 0,2 -0,8 0 0 N 1031,3 -
07.12.2017 04:00:00 0,4 -0,6 0 0 N 1031,6 -
07.12.2017 03:00:00 0,6 -0,4 0 0 N 1031,7 -
07.12.2017 02:00:00 0,9 -0,3 4 2 S 1031,6 -
07.12.2017 01:00:00 1,2 -0,1 4 2 S 1031,9 0,0
07.12.2017 00:00:00 1,8 0,3 2 1 SSE 1032,4 -
06.12.2017 23:00:00 2,4 0,4 0 0 N 1032,2 -
06.12.2017 22:00:00 3,9 2,4 0 0 N 1032,2 -
06.12.2017 21:00:00 4,3 2,3 2 1 W 1031,8 -
06.12.2017 20:00:00 5,0 2,7 4 2 SSW 1031,6 -
06.12.2017 19:00:00 6,2 3,1 4 2 SW 1031,5 0,0
06.12.2017 18:00:00 6,6 3,0 4 2 WSW 1031,4 -
06.12.2017 17:00:00 8,2 3,0 0 0 N 1031,1 -
06.12.2017 16:00:00 10,4 4,3 4 2 W 1030,9 -
06.12.2017 15:00:00 11,9 5,7 4 2 NNW 1030,8 -
06.12.2017 14:00:00 12,5 5,6 2 1 S 1031,1 -
06.12.2017 13:00:00 10,9 4,1 0 0 N 1032,2 0,0
06.12.2017 12:00:00 9,8 4,5 2 1 NNW 1033,0 -

tt = Température de l'air
td = dewpoint
ff = Vitesse du vent
dd = Direction du vent
ppp = reduced air pressure
rr = Quantités de précipitations

stations d'obs. à proximité